Bodega Marine Reserve, California Weather observations

Data are for 10 minute period ending at time listed.
 Day   Time   Solar   Ave.   Ave.  Ave.  Vector  Max.   Baro.   Total    
  of    of     Rad.   Air    Rel.  Wind   Wind   Wind  Press.  Precip.   
Year   Day            Temp.  Hum.  Speed  Dir.   Gust                    
2014   (PST)  Kw/m2    F      %     mph   deg.    mph    mb.     in.     
-------------------------------------------------------------------------
 264    3:10   0.00   62.3    85    6.6   295     9.3   1010.8    0.00 
 264    3:20   0.00   62.3    85    6.3   287     9.6   1010.8    0.00 
 264    3:30   0.00   62.3    85    6.6   303     8.9   1010.8    0.00 
 264    3:40   0.00   62.2    85    6.6   302     8.3   1010.8    0.00 
 264    3:50   0.00   62.2    85    5.9   295    10.7   1010.8    0.00 
 264    4:00   0.00   62.2    85    6.3   301     9.3   1010.8    0.00 
 264    4:10   0.00   62.3    85    6.5   298    11.2   1010.8    0.00 
 264    4:20   0.00   62.3    85    6.1   305     8.7   1011.2    0.00 
 264    4:30   0.00   62.2    84    5.9   308     8.8   1011.2    0.00 
 264    4:40   0.00   62.3    83    6.4   298     9.7   1011.2    0.00 
 264    4:50   0.00   62.2    83    6.4   296     9.5   1011.2    0.00 
 264    5:00   0.00   62.3    83    5.4   298     7.2   1011.2    0.00 
 264    5:10   0.00   62.4    84    4.3   291     7.2   1011.5    0.00 
 264    5:20   0.00   62.5    84    4.6   293     6.7   1011.5    0.00 
 264    5:30   0.00   62.5    83    4.7   279     6.3   1011.5    0.00 
 264    5:40   0.00   62.6    84    4.4   272     6.5   1011.9    0.00 
 264    5:50   0.00   62.6    83    5.8   277     8.8   1011.9    0.00 
 264    6:00   0.00   62.6    82    5.4   293     8.0   1012.2    0.00 
 264    6:10   0.00   62.6    82    5.5   277     7.6   1012.2    0.00 
 264    6:20   0.00   62.7    83    6.1   290    10.3   1012.2    0.00 
 264    6:30   0.00   62.8    83    6.7   289    11.0   1012.2    0.00 
 264    6:40   0.01   62.9    82    5.9   279     8.5   1012.2    0.00 
 264    6:50   0.01   63.0    82    5.7   276     8.5   1012.2    0.00 
 264    7:00   0.03   63.1    82    6.8   279    10.3   1012.2    0.00 
 264    7:10   0.03   63.3    82    6.7   279     9.6   1012.2    0.00 
 264    7:20   0.04   63.5    81    5.5   290     8.4   1012.2    0.00 
 264    7:30   0.02   63.6    81    5.2   285     7.9   1012.2    0.00 
 264    7:40   0.05   63.7    81    4.3   250     6.9   1012.9    0.00 
 264    7:50   0.06   64.0    80    5.1   267     7.3   1012.9    0.00 
 264    8:00   0.07   64.3    80    5.3   277     7.4   1013.2    0.00 
 264    8:10   0.07   64.5    80    4.7   268     7.7   1013.2    0.00 
 264    8:20   0.07   64.6    80    4.0   264     5.8   1013.2    0.00 
 264    8:30   0.08   64.8    78    4.2   256     6.1   1013.5    0.00 
 264    8:40   0.13   65.0    78    5.7   277     8.1   1013.5    0.00 
 264    8:50   0.17   65.7    78    5.2   288     7.4   1013.5    0.00 
 264    9:00   0.19   65.8    77    4.3   292     6.9   1013.2    0.00 
 264    9:10   0.20   66.0    76    4.2   288     7.7   1013.5    0.00 
 264    9:20   0.19   65.9    77    4.0   320     6.6   1013.5    0.00 
 264    9:30   0.24   65.9    76    3.7   311     6.4   1013.5    0.00 
 264    9:40   0.25   66.0    76    3.6   322     5.8   1013.9    0.00 
 264    9:50   0.28   66.6    74    3.5   329     6.9   1013.9    0.00 
 264   10:00   0.27   66.7    74    2.8   305     7.3   1013.9    0.00 
 264   10:10   0.30   66.7    73    3.9   308     7.5   1013.9    0.00 
 264   10:20   0.28   67.2    72    4.2   270     7.9   1013.9    0.00 
 264   10:30   0.27   67.3    72    4.1   270     6.4   1013.9    0.00 
 264   10:40   0.27   66.8    73    4.5   280     7.4   1014.2    0.00 
 264   10:50   0.27   67.1    73    4.3   284     6.4   1014.2    0.00 
 264   11:00   0.28   66.9    73    5.2   299     8.1   1014.2    0.00 
 264   11:10   0.28   67.2    72    4.9   278     7.5   1014.2    0.00 
 264   11:20   0.29   67.0    73    5.3   296     7.7   1014.2    0.00 
 264   11:30   0.31   66.9    73    5.4   285     8.0   1014.2    0.00 
 264   11:40   0.34   67.4    72    5.1   289     8.3   1014.2    0.00 
 264   11:50   0.33   67.3    72    5.8   286     8.1   1014.2    0.00 
 264   12:00   0.39   68.0    72    5.5   276     9.0   1014.2    0.00 
 264   12:10   0.39   68.1    71    4.9   277     9.1   1014.2    0.00 
 264   12:20   0.43   68.2    71    4.8   291     8.3   1013.9    0.00 
 264   12:30   0.47   68.4    70    5.6   285     9.6   1013.9    0.00 
 264   12:40   0.47   68.0    71    5.8   281     8.5   1013.9    0.00 
 264   12:50   0.51   68.9    69    5.8   272     9.1   1013.5    0.00 
 264   13:00   0.47   68.9    69    5.8   262     9.1   1013.5    0.00 
 264   13:10   0.45   68.2    70    5.8   273     8.4   1013.5    0.00 
 264   13:20   0.53   68.1    71    5.3   276     8.0   1013.5    0.00 
 264   13:30   0.51   68.0    71    5.8   286     9.2   1013.5    0.00 
 264   13:40   0.47   68.3    70    6.0   269     9.5   1013.2    0.00 
 264   13:50   0.56   68.6    69    5.7   268     8.7   1013.2    0.00 
 264   14:00   0.69   69.8    66    5.6   273     9.1   1013.2    0.00 
 264   14:10   0.58   69.4    67    6.6   288     9.6   1013.2    0.00 
 264   14:20   0.37   68.4    69    6.1   285     9.5   1013.2    0.00 
 264   14:30   0.33   67.7    70    7.5   278    10.7   1013.2    0.00 
 264   14:40   0.37   67.9    70    7.5   283    10.9   1013.2    0.00 
 264   14:50   0.28   68.2    70    7.8   278    11.0   1013.2    0.00 
 264   15:00   0.33   68.0    71    8.2   278    10.6   1013.2    0.00 
 264   15:10   0.25   67.9    72    8.9   276    13.0   1013.2    0.00 
 264   15:20   0.23   67.8    70    8.7   271    13.2   1013.5    0.00 
 264   15:30   0.20   67.8    71    8.8   274    12.6   1013.5    0.00 
 264   15:40   0.18   67.5    72    8.6   280    11.0   1013.2    0.00 
 264   15:50   0.15   67.2    73    8.8   286    12.1   1013.2    0.00 
 264   16:00   0.13   67.0    74    8.3   286    11.4   1013.2    0.00 
 264   16:10   0.10   66.7    75    9.5   281    13.6   1013.2    0.00 
 264   16:20   0.09   66.4    76    9.9   278    13.4   1013.2    0.00 
 264   16:30   0.07   66.1    77   10.6   281    14.6   1013.2    0.00 
 264   16:40   0.07   65.9    77    9.0   281    13.2   1013.2    0.00 
 264   16:50   0.07   65.9    77    8.4   281    12.3   1013.2    0.00 
 264   17:00   0.06   65.6    78    9.8   273    12.9   1013.2    0.00 
 264   17:10   0.05   65.4    78    8.2   269    12.9   1013.2    0.00 
 264   17:20   0.05   65.1    78    8.2   282    12.1   1013.2    0.00 
 264   17:30   0.03   64.9    78    8.4   283    13.2   1013.2    0.00 
 264   17:40   0.03   64.8    79    7.6   286    12.4   1013.2    0.00 
 264   17:50   0.01   64.5    80    8.1   283    10.7   1013.2    0.00 
 264   18:00   0.01   64.4    80    7.9   288    13.1   1013.2    0.00 
 264   18:10   0.00   64.3    81    8.0   285    12.6   1013.2    0.00 
 264   18:20   0.00   64.1    82    9.2   288    13.4   1013.2    0.00 
 264   18:30   0.00   64.0    83    8.6   288    12.5   1013.2    0.00 
 264   18:40   0.00   64.0    87    9.6   281    14.1   1013.2    0.00 
 264   18:50   0.00   63.8    88    9.5   279    13.1   1013.2    0.00 
 264   19:00   0.00   63.6    88    9.3   276    12.3   1013.2    0.00 
 264   19:10   0.00   63.6    89    9.4   278    13.3   1013.5    0.00 
 264   19:20   0.00   63.5    90    9.7   278    13.4   1013.5    0.00 
 264   19:30   0.00   63.5    89    9.1   284    12.0   1013.5    0.00 
 264   19:40   0.00   63.5    86    8.2   292    12.0   1013.5    0.00 
 264   19:50   0.00   63.4    86    7.7   287    11.4   1013.5    0.00 
 264   20:00   0.00   63.5    85    8.4   292    12.0   1013.5    0.00 
 264   20:10   0.00   63.4    84    8.9   296    13.0   1013.5    0.00 
 264   20:20   0.00   63.5    83    9.2   292    12.4   1013.5    0.00 
 264   20:30   0.00   63.5    82    9.9   296    16.0   1013.5    0.00 
 264   20:40   0.00   63.3    82    9.4   298    13.5   1013.5    0.00 
 264   20:50   0.00   63.4    82    9.9   305    13.7   1013.5    0.00 
 264   21:00   0.00   63.2    82   10.1   308    15.3   1013.5    0.00 
 264   21:10   0.00   63.1    82    8.4   300    14.0   1013.5    0.00 
 264   21:20   0.00   63.2    82   10.3   304    14.1   1013.5    0.00 
 264   21:30   0.00   63.0    82    9.5   297    13.1   1013.5    0.00 
 264   21:40   0.00   63.1    83    9.5   301    15.1   1013.5    0.00 
 264   21:50   0.00   63.0    83    9.9   291    15.4   1013.5    0.00 
 264   22:00   0.00   63.0    83    9.7   301    13.1   1013.5    0.00 
 264   22:10   0.00   62.9    83    9.6   294    12.9   1013.5    0.00 
 264   22:20   0.00   62.9    84    9.7   291    14.5   1013.5    0.00 
 264   22:30   0.00   62.8    83   10.8   302    15.1   1013.5    0.00 
 264   22:40   0.00   62.8    84    9.9   296    13.7   1013.5    0.00 
 264   22:50   0.00   62.7    83   10.0   307    13.6   1013.2    0.00 
 264   23:00   0.00   62.7    83   10.1   306    13.1   1013.2    0.00 
 264   23:10   0.00   62.7    84    8.8   300    12.4   1013.2    0.00 
 264   23:20   0.00   62.7    83    8.5   309    11.8   1012.9    0.00 
 264   23:30   0.00   62.7    84    7.7   303    11.3   1012.9    0.00 
 264   23:40   0.00   62.8    84    8.1   314    11.5   1013.2    0.00 
 264   23:50   0.00   62.7    84    7.0   312    11.3   1013.2    0.00 
 265    0:00   0.00   62.8    84    9.0   301    13.2   1012.9    0.00 
 265    0:10   0.00   62.8    84   10.2   292    14.8   1012.9    0.00 
 265    0:20   0.00   62.7    83    9.9   293    14.7   1012.9    0.00 
 265    0:30   0.00   62.5    84   10.8   302    14.6   1012.9    0.00 
 265    0:40   0.00   62.5    84    9.0   308    12.6   1012.9    0.00 
 265    0:50   0.00   62.5    85    8.8   312    11.8   1012.9    0.00 
 265    1:00   0.00   62.5    85    8.2   307    12.3   1012.9    0.00 
 265    1:10   0.00   62.5    85    8.6   310    11.6   1012.9    0.00 
 265    1:20   0.00   62.5    85    9.4   308    14.9   1013.2    0.00 
 265    1:30   0.00   62.4    84    9.3   294    13.2   1013.2    0.00 
 265    1:40   0.00   62.5    84    9.9   305    13.6   1013.2    0.00 
 265    1:50   0.00   62.5    84   10.4   304    15.1   1013.2    0.00 
 265    2:00   0.00   62.5    85    9.6   306    15.6   1013.2    0.00 
 265    2:10   0.00   62.5    84   11.3   302    15.3   1013.2    0.00 
 265    2:20   0.00   62.6    83   12.1   304    17.3   1013.2    0.00 
 265    2:30   0.00   62.6    83   11.4   304    15.4   1012.9    0.00 
 265    2:40   0.00   62.7    83   11.8   302    16.2   1012.9    0.00 
 265    2:50   0.00   62.8    83   11.3   302    16.0   1013.2    0.00 
 265    3:00   0.00   62.9    83   11.5   303    15.7   1013.2    0.00 

Return to Bodega Marine Reserve graphs page.


Western Regional Climate Center,wrcc@dri.edu